Time;durP1;ratioP1;P1;durP2;ratioP2;P2;SDS_P1;SDS_P2;PMS_P1;PMS_P2;Temp;Humidity;BMP_temperature;BMP_pressure;BME280_temperature;BME280_humidity;BME280_pressure;Samples;Min_cycle;Max_cycle;Signal;HPM_P1;HPM_P2
2023/08/09 00:01:39;;;;;;;;;;;;;;;20.42;54.25;101229.06;4148898;28;19932;-59
2023/08/09 00:03:41;;;;;;;;;;;;;;;20.40;54.23;101231.84;4149058;28;20016;-59
2023/08/09 00:05:43;;;;;;;;;;;;;;;20.41;53.90;101230.00;4148423;28;19929;-58
2023/08/09 00:07:45;;;;;;;;;;;;;;;20.39;54.23;101219.44;4147803;28;19925;-58
2023/08/09 00:09:46;;;;;;;;;;;;;;;20.38;54.30;101212.38;4149041;28;20340;-58
2023/08/09 00:11:48;;;;;;;;;;;;;;;20.39;54.07;101222.09;4148618;28;19972;-59
2023/08/09 00:13:50;;;;;;;;;;;;;;;20.38;54.25;101214.22;4148592;28;19929;-59
2023/08/09 00:15:52;;;;;;;;;;;;;;;20.38;53.89;101206.19;4148186;28;19925;-58
2023/08/09 00:17:54;;;;;;;;;;;;;;;20.37;54.34;101208.00;4149031;28;19925;-59
2023/08/09 00:19:56;;;;;;;;;;;;;;;20.37;54.38;101217.84;4148847;28;19949;-59
2023/08/09 00:21:57;;;;;;;;;;;;;;;20.36;54.32;101219.63;4148737;28;19926;-59
2023/08/09 00:23:58;;;;;;;;;;;;;;;20.36;54.39;101226.81;4147831;28;19932;-59
2023/08/09 00:26:00;;;;;;;;;;;;;;;20.35;54.49;101222.41;4147962;28;20393;-58
2023/08/09 00:28:02;;;;;;;;;;;;;;;20.36;54.38;101229.47;4148502;28;20343;-59
2023/08/09 00:30:04;;;;;;;;;;;;;;;20.34;54.13;101228.72;4149081;28;19932;-58
2023/08/09 00:32:07;;;;;;;;;;;;;;;20.34;54.29;101224.25;4148603;28;19980;-59
2023/08/09 00:34:08;;;;;;;;;;;;;;;20.35;54.43;101227.75;4148776;28;19963;-59
2023/08/09 00:36:10;;;;;;;;;;;;;;;20.35;54.33;101227.75;4147948;28;19964;-59
2023/08/09 00:38:11;;;;;;;;;;;;;;;20.34;54.38;101234.94;4148512;28;20311;-59
2023/08/09 00:40:13;;;;;;;;;;;;;;;20.33;54.44;101238.56;4148525;28;20270;-58
2023/08/09 00:42:15;;;;;;;;;;;;;;;20.33;54.48;101229.69;4148092;28;20017;-58
2023/08/09 00:44:16;;;;;;;;;;;;;;;20.31;54.27;101231.63;4148322;28;19929;-58
2023/08/09 00:46:18;;;;;;;;;;;;;;;20.31;54.46;101235.13;4147734;28;19929;-59
2023/08/09 00:48:20;;;;;;;;;;;;;;;20.30;54.26;101233.41;4148626;28;19925;-58
2023/08/09 00:50:22;;;;;;;;;;;;;;;20.30;54.48;101221.88;4148478;28;19956;-58
2023/08/09 00:52:27;;;;;;;;;;;;;;;20.29;54.36;101218.34;4148277;28;19925;-58
2023/08/09 00:54:28;;;;;;;;;;;;;;;20.29;54.69;101213.00;4148047;28;19925;-59
2023/08/09 00:56:30;;;;;;;;;;;;;;;20.29;54.51;101214.84;4147811;28;19925;-59
2023/08/09 00:58:31;;;;;;;;;;;;;;;20.29;54.54;101223.69;4148325;28;19929;-59
2023/08/09 01:00:33;;;;;;;;;;;;;;;20.29;54.54;101218.34;4148160;28;19925;-59
2023/08/09 01:02:34;;;;;;;;;;;;;;;20.28;54.41;101216.66;4148212;28;19929;-59
2023/08/09 01:04:37;;;;;;;;;;;;;;;20.27;54.51;101218.47;4147789;28;20454;-59
2023/08/09 01:06:48;;;;;;;;;;;;;;;20.27;54.38;101226.47;4147072;28;19929;-59
2023/08/09 01:08:53;;;;;;;;;;;;;;;20.26;54.60;101221.25;4148294;28;20398;-59
2023/08/09 01:11:16;;;;;;;;;;;;;;;20.27;54.52;101222.97;4146807;28;19932;-58
2023/08/09 01:13:19;;;;;;;;;;;;;;;20.27;54.52;101225.63;4098105;29;19933;-59
2023/08/09 01:15:21;;;;;;;;;;;;;;;20.26;54.45;101232.78;4097351;28;19958;-58
2023/08/09 01:17:24;;;;;;;;;;;;;;;20.26;54.28;101232.78;4098037;29;20319;-59
2023/08/09 01:19:31;;;;;;;;;;;;;;;20.25;54.79;101232.88;4097931;29;19962;-58
2023/08/09 01:21:34;;;;;;;;;;;;;;;20.25;54.69;101231.06;4098013;29;20423;-58
2023/08/09 01:23:40;;;;;;;;;;;;;;;20.24;54.76;101229.38;4097779;29;20308;-58
2023/08/09 01:25:43;;;;;;;;;;;;;;;20.23;54.44;101227.66;4097012;29;19926;-58
2023/08/09 01:27:44;;;;;;;;;;;;;;;20.25;54.72;101231.06;4097939;29;20328;-58
2023/08/09 01:29:46;;;;;;;;;;;;;;;20.24;54.86;101232.03;4097738;29;20043;-58
2023/08/09 01:31:47;;;;;;;;;;;;;;;20.24;54.90;101233.84;4097761;29;19930;-58
2023/08/09 01:33:49;;;;;;;;;;;;;;;20.24;54.97;101236.50;4097808;29;20331;-58
2023/08/09 01:35:55;;;;;;;;;;;;;;;20.23;54.92;101234.78;4096642;29;19959;-58
2023/08/09 01:37:59;;;;;;;;;;;;;;;20.23;54.86;101234.78;4097803;29;20021;-58
2023/08/09 01:40:08;;;;;;;;;;;;;;;20.23;55.06;101234.78;4097438;29;19926;-58
2023/08/09 01:42:11;;;;;;;;;;;;;;;20.23;55.03;101237.47;4097757;29;19950;-58
2023/08/09 01:44:13;;;;;;;;;;;;;;;20.22;54.88;101241.09;4097773;29;19933;-59
2023/08/09 01:46:15;;;;;;;;;;;;;;;20.21;55.05;101242.91;4097098;29;19926;-59
2023/08/09 01:48:16;;;;;;;;;;;;;;;20.22;54.74;101249.97;4097554;29;19962;-59
2023/08/09 01:50:23;;;;;;;;;;;;;;;20.21;54.87;101245.59;4112794;28;20021;-57
2023/08/09 01:52:24;;;;;;;;;;;;;;;20.21;55.15;101237.56;4146241;28;19932;-58
2023/08/09 01:54:27;;;;;;;;;;;;;;;20.21;55.08;101240.25;4147918;28;19947;-59
2023/08/09 01:56:28;;;;;;;;;;;;;;;20.21;55.12;101245.59;4147184;28;20008;-58
2023/08/09 01:58:30;;;;;;;;;;;;;;;20.21;55.18;101239.41;4147753;28;20008;-59
2023/08/09 02:00:32;;;;;;;;;;;;;;;20.21;54.99;101236.75;4147556;28;20009;-58
2023/08/09 02:02:33;;;;;;;;;;;;;;;20.20;55.02;101235.03;4147763;28;19930;-59
2023/08/09 02:04:35;;;;;;;;;;;;;;;20.20;54.83;101243.03;4147517;28;19930;-59
2023/08/09 02:06:38;;;;;;;;;;;;;;;20.19;55.22;101242.16;4147002;28;19936;-58
2023/08/09 02:08:42;;;;;;;;;;;;;;;20.19;55.14;101242.16;4147655;28;19947;-59
2023/08/09 02:10:43;;;;;;;;;;;;;;;20.18;55.04;101237.78;4147260;28;19941;-58
2023/08/09 02:12:47;;;;;;;;;;;;;;;20.18;55.15;101234.25;4147548;28;20008;-57
2023/08/09 02:14:50;;;;;;;;;;;;;;;20.18;54.96;101236.94;4146942;28;19925;-59
2023/08/09 02:16:52;;;;;;;;;;;;;;;20.17;55.20;101233.41;4147558;28;19933;-59
2023/08/09 02:18:54;;;;;;;;;;;;;;;20.17;54.94;101240.56;4147761;28;19932;-59
2023/08/09 02:20:58;;;;;;;;;;;;;;;20.17;55.38;101237.88;4146584;28;19960;-59
2023/08/09 02:22:59;;;;;;;;;;;;;;;20.17;55.16;101241.44;4147634;28;20001;-59
2023/08/09 02:25:02;;;;;;;;;;;;;;;20.16;55.41;101226.38;4146734;28;20140;-59
2023/08/09 02:27:03;;;;;;;;;;;;;;;20.16;55.21;101231.72;4147625;28;19925;-59
2023/08/09 02:29:05;;;;;;;;;;;;;;;20.16;55.33;101234.38;4147323;28;20012;-59
2023/08/09 02:31:08;;;;;;;;;;;;;;;20.16;55.05;101233.50;4146048;28;19992;-58
2023/08/09 02:33:09;;;;;;;;;;;;;;;20.15;55.37;101229.16;4147424;28;19926;-59
2023/08/09 02:35:11;;;;;;;;;;;;;;;20.16;55.08;101228.16;4146801;28;19925;-59
2023/08/09 02:37:13;;;;;;;;;;;;;;;20.15;55.20;101226.47;4147247;28;19935;-58
2023/08/09 02:39:14;;;;;;;;;;;;;;;20.15;55.00;101230.00;4147023;28;19948;-58
2023/08/09 02:41:16;;;;;;;;;;;;;;;20.14;55.16;101233.63;4147273;28;20027;-59
2023/08/09 02:43:18;;;;;;;;;;;;;;;20.14;55.12;101230.94;4147437;28;19930;-59
2023/08/09 02:45:19;;;;;;;;;;;;;;;20.13;55.25;101229.22;4147103;28;19925;-58
2023/08/09 02:47:21;;;;;;;;;;;;;;;20.14;55.32;101238.13;4148839;28;19932;-59
2023/08/09 02:49:22;;;;;;;;;;;;;;;20.12;55.46;101232.84;4150396;28;20025;-58
2023/08/09 02:51:24;;;;;;;;;;;;;;;20.13;55.28;101239.06;4150052;28;19945;-58
2023/08/09 02:53:26;;;;;;;;;;;;;;;20.11;55.12;101239.19;4149822;28;20282;-58
2023/08/09 02:55:28;;;;;;;;;;;;;;;20.11;55.25;101239.19;4149506;28;20430;-59
2023/08/09 02:57:29;;;;;;;;;;;;;;;20.10;55.16;101237.47;4148810;28;19925;-59
2023/08/09 02:59:31;;;;;;;;;;;;;;;20.11;55.33;101231.16;4150168;28;19980;-60
2023/08/09 03:01:33;;;;;;;;;;;;;;;20.10;55.19;101237.47;4149864;28;19926;-59
2023/08/09 03:03:36;;;;;;;;;;;;;;;20.09;55.15;101241.94;4150026;28;19930;-58
2023/08/09 03:05:38;;;;;;;;;;;;;;;20.09;55.15;101236.59;4149430;28;19929;-59
2023/08/09 03:07:40;;;;;;;;;;;;;;;20.09;55.41;101239.25;4149586;28;19926;-59
2023/08/09 03:09:41;;;;;;;;;;;;;;;20.08;55.42;101240.22;4149925;28;20020;-58
2023/08/09 03:11:43;;;;;;;;;;;;;;;20.09;55.46;101235.75;4149699;28;19925;-58
2023/08/09 03:13:44;;;;;;;;;;;;;;;20.10;55.15;101242.81;4149781;28;20005;-59
2023/08/09 03:15:46;;;;;;;;;;;;;;;20.08;55.37;101242.88;4147932;28;19925;-59
2023/08/09 03:17:48;;;;;;;;;;;;;;;20.08;55.44;101253.56;4149822;28;20048;-59
2023/08/09 03:19:50;;;;;;;;;;;;;;;20.08;55.46;101264.25;4149998;28;19953;-58
2023/08/09 03:21:52;;;;;;;;;;;;;;;20.08;55.27;101263.41;4149356;28;19932;-59
2023/08/09 03:23:54;;;;;;;;;;;;;;;20.08;55.23;101269.59;4149842;28;19935;-58
2023/08/09 03:25:55;;;;;;;;;;;;;;;20.08;55.33;101266.06;4148994;28;19925;-59
2023/08/09 03:27:57;;;;;;;;;;;;;;;20.07;55.25;101267.91;4149585;28;19926;-59
2023/08/09 03:29:59;;;;;;;;;;;;;;;20.06;55.29;101268.84;4149407;28;20383;-59
2023/08/09 03:32:01;;;;;;;;;;;;;;;20.06;55.55;101263.53;4149568;28;19932;-59
2023/08/09 03:34:02;;;;;;;;;;;;;;;20.06;55.43;101268.84;4149411;28;19926;-59
2023/08/09 03:36:05;;;;;;;;;;;;;;;20.05;55.17;101264.47;4148381;28;20016;-59
2023/08/09 03:38:07;;;;;;;;;;;;;;;20.06;55.10;101262.66;4149679;28;20394;-59
2023/08/09 03:40:12;;;;;;;;;;;;;;;20.05;55.28;101261.81;4149432;28;19930;-59
2023/08/09 03:42:14;;;;;;;;;;;;;;;20.04;55.30;101265.44;4149565;28;20405;-59
2023/08/09 03:44:15;;;;;;;;;;;;;;;20.05;55.42;101272.47;4149551;28;19932;-59
2023/08/09 03:46:17;;;;;;;;;;;;;;;20.05;55.63;101267.13;4148828;28;19931;-59
2023/08/09 03:48:19;;;;;;;;;;;;;;;20.04;55.40;101260.09;4149422;28;20016;-59
2023/08/09 03:50:21;;;;;;;;;;;;;;;20.03;55.61;101266.38;4149389;28;20387;-59
2023/08/09 03:52:22;;;;;;;;;;;;;;;20.03;55.28;101262.88;4148974;28;19925;-59
2023/08/09 03:54:24;;;;;;;;;;;;;;;20.03;55.37;101269.03;4149264;28;19925;-59
2023/08/09 03:56:26;;;;;;;;;;;;;;;20.03;55.31;101277.06;4147338;28;19925;-58
2023/08/09 03:58:27;;;;;;;;;;;;;;;20.03;55.40;101284.22;4148904;28;19972;-59
2023/08/09 04:00:29;;;;;;;;;;;;;;;20.03;55.44;101282.41;4149245;28;19936;-58
2023/08/09 04:02:30;;;;;;;;;;;;;;;20.03;55.39;101284.22;4149032;28;19939;-59
2023/08/09 04:04:32;;;;;;;;;;;;;;;20.03;55.57;101281.56;4149193;28;20473;-58
2023/08/09 04:06:34;;;;;;;;;;;;;;;20.02;55.67;101288.69;4148057;28;19929;-59
2023/08/09 04:08:35;;;;;;;;;;;;;;;20.02;55.70;101290.50;4148876;28;19972;-58
2023/08/09 04:10:38;;;;;;;;;;;;;;;20.01;55.47;101292.31;4148757;28;19930;-59
2023/08/09 04:12:39;;;;;;;;;;;;;;;20.01;55.44;101292.31;4148740;28;19969;-59
2023/08/09 04:14:41;;;;;;;;;;;;;;;20.02;55.76;101296.69;4149097;28;19926;-59
2023/08/09 04:16:42;;;;;;;;;;;;;;;20.01;55.47;101299.47;4148330;28;20429;-59
2023/08/09 04:18:44;;;;;;;;;;;;;;;20.02;55.74;101303.88;4148781;28;19925;-58
2023/08/09 04:20:45;;;;;;;;;;;;;;;20.01;55.87;101303.00;4148701;28;20441;-59
2023/08/09 04:22:47;;;;;;;;;;;;;;;20.01;55.64;101303.00;4148854;28;20004;-59
2023/08/09 04:24:48;;;;;;;;;;;;;;;20.00;55.55;101305.78;4148739;28;19925;-59
2023/08/09 04:26:51;;;;;;;;;;;;;;;20.00;55.87;101308.44;4148447;28;19968;-59
2023/08/09 04:28:52;;;;;;;;;;;;;;;19.99;55.85;101307.59;4148723;28;19940;-58
2023/08/09 04:30:54;;;;;;;;;;;;;;;19.97;55.90;101303.31;4148752;28;20413;-59
2023/08/09 04:32:56;;;;;;;;;;;;;;;19.99;55.92;101312.06;4148625;28;19944;-59
2023/08/09 04:34:57;;;;;;;;;;;;;;;20.00;55.75;101311.13;4148349;28;20264;-58
2023/08/09 04:36:59;;;;;;;;;;;;;;;19.98;55.77;101311.22;4147883;28;19929;-58
2023/08/09 04:39:01;;;;;;;;;;;;;;;19.99;55.86;101312.94;4148754;28;19948;-58
2023/08/09 04:41:03;;;;;;;;;;;;;;;19.98;55.82;101316.56;4148576;28;19926;-58
2023/08/09 04:43:05;;;;;;;;;;;;;;;19.99;55.76;101320.06;4148552;28;20325;-57
2023/08/09 04:45:10;;;;;;;;;;;;;;;19.99;55.71;101322.75;4148485;28;19933;-59
2023/08/09 04:47:12;;;;;;;;;;;;;;;19.98;55.93;101324.56;4147872;28;19969;-58
2023/08/09 04:49:13;;;;;;;;;;;;;;;19.98;55.91;101315.69;4148238;28;19957;-59
2023/08/09 04:51:16;;;;;;;;;;;;;;;19.98;56.01;101321.03;4148488;28;20012;-58
2023/08/09 04:53:20;;;;;;;;;;;;;;;19.97;55.73;101322.84;4148296;28;20294;-58
2023/08/09 04:55:21;;;;;;;;;;;;;;;19.97;55.91;101330.88;4147844;28;19925;-58
2023/08/09 04:57:23;;;;;;;;;;;;;;;19.97;55.90;101330.88;4148344;28;19933;-58
2023/08/09 04:59:25;;;;;;;;;;;;;;;19.97;56.02;101327.34;4148551;28;19925;-59
2023/08/09 05:01:26;;;;;;;;;;;;;;;19.96;55.62;101323.81;4148158;28;19926;-59
2023/08/09 05:03:28;;;;;;;;;;;;;;;19.95;55.90;101324.75;4146714;28;19925;-59
2023/08/09 05:05:29;;;;;;;;;;;;;;;19.96;55.98;101326.47;4147559;28;19983;-59
2023/08/09 05:07:31;;;;;;;;;;;;;;;19.95;55.61;101322.97;4147927;28;19972;-59
2023/08/09 05:09:34;;;;;;;;;;;;;;;19.95;55.95;101322.97;4147535;28;19925;-59
2023/08/09 05:11:35;;;;;;;;;;;;;;;19.96;55.88;101331.81;4148046;28;19930;-59
2023/08/09 05:13:37;;;;;;;;;;;;;;;19.97;56.01;101330.03;4148157;28;19925;-59
2023/08/09 05:15:38;;;;;;;;;;;;;;;19.95;55.88;101332.78;4147353;28;20012;-58
2023/08/09 05:17:40;;;;;;;;;;;;;;;19.95;55.82;101338.97;4147737;28;19965;-59
2023/08/09 05:19:42;;;;;;;;;;;;;;;19.96;56.08;101334.50;4148253;28;19925;-58
2023/08/09 05:21:43;;;;;;;;;;;;;;;19.95;56.08;101327.44;4147957;28;20291;-58
2023/08/09 05:23:45;;;;;;;;;;;;;;;19.94;56.09;101329.25;4148108;28;19932;-58
2023/08/09 05:25:46;;;;;;;;;;;;;;;19.94;55.99;101321.25;4147460;28;20398;-58
2023/08/09 05:27:48;;;;;;;;;;;;;;;19.94;55.96;101325.75;4147797;28;19925;-58
2023/08/09 05:29:50;;;;;;;;;;;;;;;19.93;56.18;101332.88;4148039;28;20114;-59
2023/08/09 05:31:51;;;;;;;;;;;;;;;19.94;56.16;101325.75;4147800;28;20024;-58
2023/08/09 05:33:53;;;;;;;;;;;;;;;19.94;56.17;101328.41;4147589;28;20003;-59
2023/08/09 05:35:55;;;;;;;;;;;;;;;19.94;56.05;101339.09;4147442;28;19929;-58
2023/08/09 05:37:57;;;;;;;;;;;;;;;19.93;55.89;101354.22;4146702;28;19964;-59
2023/08/09 05:39:58;;;;;;;;;;;;;;;19.94;56.05;101344.44;4147960;28;19926;-59
2023/08/09 05:42:00;;;;;;;;;;;;;;;19.88;55.93;101340.34;4147893;28;19937;-59
2023/08/09 05:44:02;;;;;;;;;;;;;;;19.93;55.94;101359.56;4147676;28;19925;-59
2023/08/09 05:46:04;;;;;;;;;;;;;;;19.94;56.07;101355.09;4147303;28;19972;-59
2023/08/09 05:48:06;;;;;;;;;;;;;;;19.93;56.17;101353.41;4147605;28;19929;-58
2023/08/09 05:50:07;;;;;;;;;;;;;;;19.91;56.17;101350.81;4147813;28;19932;-58
2023/08/09 05:52:09;;;;;;;;;;;;;;;19.92;56.25;101344.50;4147634;28;19932;-58
2023/08/09 05:54:10;;;;;;;;;;;;;;;19.92;56.18;101341.84;4146735;28;19930;-59
2023/08/09 05:56:12;;;;;;;;;;;;;;;19.92;56.01;101344.50;4147127;28;19925;-58
2023/08/09 05:58:14;;;;;;;;;;;;;;;19.93;56.18;101348.06;4147895;28;20024;-59
2023/08/09 06:00:17;;;;;;;;;;;;;;;19.92;56.39;101351.69;4147913;28;20287;-59
2023/08/09 06:02:18;;;;;;;;;;;;;;;19.93;56.37;101345.38;4147358;28;19932;-60
2023/08/09 06:04:20;;;;;;;;;;;;;;;19.94;56.39;101347.09;4147622;28;20028;-59
2023/08/09 06:06:22;;;;;;;;;;;;;;;19.94;56.13;101349.78;4147109;28;20482;-60
2023/08/09 06:08:24;;;;;;;;;;;;;;;19.95;56.17;101344.31;4147815;28;20272;-59
2023/08/09 06:10:26;;;;;;;;;;;;;;;19.95;56.37;101340.78;4147684;28;20020;-60
2023/08/09 06:12:45;;;;;;;;;;;;;;;19.95;56.38;101355.00;4147752;28;19925;-59
2023/08/09 06:14:47;;;;;;;;;;;;;;;19.96;56.35;101350.50;4147470;28;19925;-60
2023/08/09 06:16:48;;;;;;;;;;;;;;;19.94;56.48;101358.63;4146602;28;19933;-60
2023/08/09 06:18:50;;;;;;;;;;;;;;;19.95;56.52;101360.34;4147443;28;19929;-59
2023/08/09 06:20:54;;;;;;;;;;;;;;;19.95;56.31;101362.13;4148545;28;19926;-59
2023/08/09 06:22:56;;;;;;;;;;;;;;;19.95;56.83;101359.47;4150685;28;20016;-59
2023/08/09 06:24:58;;;;;;;;;;;;;;;19.95;56.45;101362.13;4150904;28;19932;-60
2023/08/09 06:27:00;;;;;;;;;;;;;;;19.94;56.59;101355.94;4149921;28;20024;-59
2023/08/09 06:29:02;;;;;;;;;;;;;;;19.95;56.56;101372.81;4150663;28;19926;-59
2023/08/09 06:31:04;;;;;;;;;;;;;;;19.94;56.57;101371.97;4150181;28;19925;-59
2023/08/09 06:33:05;;;;;;;;;;;;;;;19.95;56.56;101373.69;4150275;28;19933;-59
2023/08/09 06:35:09;;;;;;;;;;;;;;;19.94;56.56;101379.97;4150597;28;19932;-60
2023/08/09 06:37:11;;;;;;;;;;;;;;;19.95;56.56;101386.16;4149746;28;19930;-59
2023/08/09 06:39:12;;;;;;;;;;;;;;;19.94;56.45;101388.00;4150219;28;19936;-59
2023/08/09 06:41:14;;;;;;;;;;;;;;;19.93;56.66;101394.28;4150541;28;19925;-60
2023/08/09 06:43:15;;;;;;;;;;;;;;;19.92;56.48;101395.22;4150113;28;19932;-59
2023/08/09 06:45:17;;;;;;;;;;;;;;;19.92;56.54;101400.56;4150001;28;19925;-59
2023/08/09 06:47:19;;;;;;;;;;;;;;;19.92;56.77;101403.25;4149531;28;19925;-59
2023/08/09 06:49:23;;;;;;;;;;;;;;;19.92;56.81;101399.72;4150620;28;19929;-59
2023/08/09 06:51:25;;;;;;;;;;;;;;;19.91;56.58;101412.19;4150325;28;19929;-59
2023/08/09 06:53:26;;;;;;;;;;;;;;;19.92;56.63;101410.41;4150132;28;19929;-59
2023/08/09 06:55:28;;;;;;;;;;;;;;;19.92;56.78;101411.25;4150453;28;19979;-59
2023/08/09 06:57:30;;;;;;;;;;;;;;;19.93;56.89;101420.13;4149567;28;20387;-59
2023/08/09 06:59:31;;;;;;;;;;;;;;;19.92;56.85;101419.25;4149904;28;20394;-59
2023/08/09 07:01:33;;;;;;;;;;;;;;;19.93;57.00;101415.63;4149938;28;20004;-59
2023/08/09 07:03:35;;;;;;;;;;;;;;;19.92;56.97;101418.41;4150067;28;19955;-59
2023/08/09 07:05:37;;;;;;;;;;;;;;;19.92;57.00;101421.94;4149924;28;19929;-59
2023/08/09 07:07:39;;;;;;;;;;;;;;;19.93;56.86;101415.63;4149527;28;20008;-59
2023/08/09 07:09:42;;;;;;;;;;;;;;;19.93;56.92;101414.78;4149906;28;19929;-59
2023/08/09 07:11:45;;;;;;;;;;;;;;;19.94;56.98;101420.03;4149632;28;19926;-59
2023/08/09 07:13:47;;;;;;;;;;;;;;;19.93;57.11;101406.78;4149437;28;19925;-59
2023/08/09 07:15:48;;;;;;;;;;;;;;;19.94;56.76;101416.50;4149364;28;19925;-59
2023/08/09 07:17:51;;;;;;;;;;;;;;;19.95;56.79;101415.53;4149871;28;20009;-59
2023/08/09 07:19:52;;;;;;;;;;;;;;;19.95;57.15;101423.53;4149918;28;20411;-60
2023/08/09 07:21:54;;;;;;;;;;;;;;;19.96;56.96;101425.25;4149719;28;19925;-59
2023/08/09 07:23:56;;;;;;;;;;;;;;;19.97;57.27;101426.13;4149675;28;19968;-58
2023/08/09 07:25:59;;;;;;;;;;;;;;;19.95;56.83;101424.41;4149234;28;20379;-58
2023/08/09 07:28:01;;;;;;;;;;;;;;;19.97;56.84;101424.31;4149210;28;19929;-58
2023/08/09 07:30:02;;;;;;;;;;;;;;;19.97;57.17;101424.31;4149733;28;19929;-59
2023/08/09 07:32:04;;;;;;;;;;;;;;;19.98;57.28;101417.16;4149250;28;19926;-59
2023/08/09 07:34:06;;;;;;;;;;;;;;;19.98;57.07;101426.03;4149153;28;19929;-59
2023/08/09 07:36:08;;;;;;;;;;;;;;;20.00;57.35;101429.47;4149148;28;19957;-59
2023/08/09 07:38:09;;;;;;;;;;;;;;;20.02;57.13;101434.69;4149496;28;19937;-59
2023/08/09 07:40:14;;;;;;;;;;;;;;;20.02;56.92;101432.03;4149427;28;19969;-60
2023/08/09 07:42:16;;;;;;;;;;;;;;;20.02;56.50;101434.69;4149672;28;20421;-60
2023/08/09 07:44:17;;;;;;;;;;;;;;;20.02;57.13;101432.03;4149264;28;19926;-59
2023/08/09 07:46:19;;;;;;;;;;;;;;;20.01;57.07;101425.81;4148946;28;20042;-59
2023/08/09 07:48:21;;;;;;;;;;;;;;;20.01;57.67;101424.97;4149193;28;19929;-60
2023/08/09 07:50:22;;;;;;;;;;;;;;;20.01;57.37;101430.31;4148228;28;19957;-59
2023/08/09 07:52:24;;;;;;;;;;;;;;;20.01;57.34;101431.16;4149283;28;19948;-59
2023/08/09 07:54:25;;;;;;;;;;;;;;;20.01;57.70;101427.63;4149233;28;20306;-59
2023/08/09 07:56:27;;;;;;;;;;;;;;;20.01;57.34;101436.50;4148745;28;20012;-59
2023/08/09 07:58:28;;;;;;;;;;;;;;;20.02;57.53;101432.03;4148904;28;19925;-59
2023/08/09 08:00:30;;;;;;;;;;;;;;;20.02;57.64;101426.69;4149380;28;20402;-59
2023/08/09 08:02:47;;;;;;;;;;;;;;;20.01;57.54;101428.47;4149227;28;20028;-60
2023/08/09 08:04:49;;;;;;;;;;;;;;;20.02;57.57;101435.53;4149205;28;19925;-59
2023/08/09 08:06:51;;;;;;;;;;;;;;;20.02;57.26;101434.69;4147129;28;20020;-59
2023/08/09 08:08:52;;;;;;;;;;;;;;;20.02;57.64;101437.38;4149143;28;19980;-59
2023/08/09 08:10:54;;;;;;;;;;;;;;;20.03;57.65;101436.41;4149015;28;20395;-59
2023/08/09 08:12:55;;;;;;;;;;;;;;;20.03;57.68;101434.59;4145094;28;19929;-59
2023/08/09 08:14:58;;;;;;;;;;;;;;;20.07;58.85;101436.13;4140130;28;20024;-59
2023/08/09 08:16:59;;;;;;;;;;;;;;;20.21;57.98;101429.88;4146908;28;19926;-60
2023/08/09 08:19:01;;;;;;;;;;;;;;;20.29;57.54;101437.38;4143023;28;20441;-59
2023/08/09 08:21:03;;;;;;;;;;;;;;;20.36;57.46;101444.03;4147182;28;20020;-59
2023/08/09 08:23:06;;;;;;;;;;;;;;;20.43;57.20;101436.50;4145350;28;19925;-59
2023/08/09 08:25:07;;;;;;;;;;;;;;;20.49;57.15;101446.78;4146790;28;19992;-60
2023/08/09 08:27:12;;;;;;;;;;;;;;;20.53;56.92;101440.25;4146389;28;19929;-59
2023/08/09 08:29:13;;;;;;;;;;;;;;;20.59;57.44;101449.69;4147397;28;20449;-60
2023/08/09 08:31:19;;;;;;;;;;;;;;;20.67;56.64;101450.03;4146182;28;19940;-61
2023/08/09 08:33:21;;;;;;;;;;;;;;;20.74;57.41;101456.72;4141007;28;20515;-59
2023/08/09 08:35:24;;;;;;;;;;;;;;;20.83;57.44;101457.91;4142275;28;19926;-59
2023/08/09 08:37:26;;;;;;;;;;;;;;;20.90;57.08;101461.91;4138438;28;19929;-59
2023/08/09 08:39:29;;;;;;;;;;;;;;;20.98;56.52;101460.53;4139448;28;19937;-58
2023/08/09 08:41:30;;;;;;;;;;;;;;;21.04;56.58;101463.63;4141743;28;19933;-57
2023/08/09 08:43:32;;;;;;;;;;;;;;;21.08;56.50;101461.59;4139065;28;19948;-58
2023/08/09 08:45:36;;;;;;;;;;;;;;;21.10;56.79;101461.50;4138717;28;20016;-58
2023/08/09 08:47:39;;;;;;;;;;;;;;;21.16;56.25;101466.44;4138562;28;19929;-59
2023/08/09 08:49:44;;;;;;;;;;;;;;;21.21;56.25;101466.97;4141040;28;19936;-58
2023/08/09 08:51:50;;;;;;;;;;;;;;;21.23;56.18;101465.91;4139763;28;19957;-58
2023/08/09 08:53:52;;;;;;;;;;;;;;;21.28;56.13;101465.59;4139156;28;19934;-58
2023/08/09 08:55:54;;;;;;;;;;;;;;;21.29;55.45;101472.66;4138644;28;20310;-59
2023/08/09 08:57:56;;;;;;;;;;;;;;;21.28;55.31;101470.94;4139631;28;20280;-58
2023/08/09 08:59:58;;;;;;;;;;;;;;;21.26;55.18;101470.16;4141045;28;20020;-59
2023/08/09 09:02:02;;;;;;;;;;;;;;;21.35;55.96;101471.34;4138742;28;19929;-60
2023/08/09 09:04:04;;;;;;;;;;;;;;;21.46;56.04;101470.59;4140619;28;20020;-63
2023/08/09 09:06:06;;;;;;;;;;;;;;;21.42;55.35;101478.00;4147867;28;20020;-59
2023/08/09 09:08:08;;;;;;;;;;;;;;;21.43;55.07;101484.22;4147587;28;19926;-59
2023/08/09 09:10:09;;;;;;;;;;;;;;;21.40;55.38;101485.28;4147790;28;19925;-59
2023/08/09 09:12:11;;;;;;;;;;;;;;;21.41;55.33;101486.13;4147902;28;19925;-59
2023/08/09 09:14:14;;;;;;;;;;;;;;;21.39;55.45;101481.75;4147878;28;19933;-59
2023/08/09 09:16:16;;;;;;;;;;;;;;;21.47;55.40;101477.69;4146389;28;19932;-58
2023/08/09 09:18:18;;;;;;;;;;;;;;;21.54;54.83;101482.50;4146842;28;19960;-57
2023/08/09 09:20:23;;;;;;;;;;;;;;;21.57;55.10;101494.84;4148030;28;19926;-58
2023/08/09 09:22:29;;;;;;;;;;;;;;;21.58;55.04;101493.03;4147942;28;20338;-59
2023/08/09 09:24:34;;;;;;;;;;;;;;;21.60;54.90;101494.63;4147428;28;20283;-57
2023/08/09 09:26:37;;;;;;;;;;;;;;;21.67;54.85;101484.34;4147189;28;19925;-60
2023/08/09 09:28:44;;;;;;;;;;;;;;;21.73;54.49;101486.59;4148019;28;20027;-61
2023/08/09 09:30:55;;;;;;;;;;;;;;;21.87;54.57;101488.28;4146136;28;19988;-62
2023/08/09 09:32:58;;;;;;;;;;;;;;;21.96;54.13;101489.47;4142709;28;19929;-61
2023/08/09 09:35:00;;;;;;;;;;;;;;;21.97;53.88;101485.78;4138833;28;19969;-60
2023/08/09 09:37:01;;;;;;;;;;;;;;;21.98;54.11;101490.19;4138061;28;20300;-61
2023/08/09 09:39:09;;;;;;;;;;;;;;;22.04;53.84;101486.22;4138407;28;19976;-61
2023/08/09 09:41:15;;;;;;;;;;;;;;;22.05;53.59;101485.25;4138789;28;19972;-61
2023/08/09 09:43:16;;;;;;;;;;;;;;;22.06;53.37;101481.63;4138844;28;19933;-62
2023/08/09 09:45:20;;;;;;;;;;;;;;;22.12;53.59;101484.69;4137348;28;19988;-60
2023/08/09 09:47:24;;;;;;;;;;;;;;;22.20;53.22;101483.28;4137908;28;19929;-59
2023/08/09 09:49:26;;;;;;;;;;;;;;;22.25;53.31;101482.00;4138888;28;20371;-61
2023/08/09 09:51:27;;;;;;;;;;;;;;;22.32;52.86;101488.63;4138668;28;20475;-61
2023/08/09 09:53:29;;;;;;;;;;;;;;;22.32;52.87;101491.28;4138243;28;19932;-62
2023/08/09 09:55:31;;;;;;;;;;;;;;;22.31;53.45;101491.41;4139188;28;19926;-61
2023/08/09 09:57:33;;;;;;;;;;;;;;;22.35;52.83;101495.56;4141086;28;19929;-62
2023/08/09 09:59:34;;;;;;;;;;;;;;;22.36;52.93;101499.09;4145899;28;20454;-61
2023/08/09 10:01:39;;;;;;;;;;;;;;;22.38;52.91;101502.53;4141771;28;19929;-59
2023/08/09 10:03:42;;;;;;;;;;;;;;;22.40;52.78;101500.63;4142011;28;19925;-59
2023/08/09 10:05:55;;;;;;;;;;;;;;;22.41;52.76;101497.81;4150652;28;19932;-60
2023/08/09 10:07:57;;;;;;;;;;;;;;;22.45;52.88;101501.97;4143405;28;19937;-60
2023/08/09 10:10:03;;;;;;;;;;;;;;;22.40;52.88;101501.47;4145617;28;19926;-60
2023/08/09 10:12:08;;;;;;;;;;;;;;;22.40;52.70;101496.13;4141343;28;19926;-58
2023/08/09 10:14:11;;;;;;;;;;;;;;;22.43;52.90;101497.72;4142657;28;20411;-59
2023/08/09 10:16:14;;;;;;;;;;;;;;;22.47;52.59;101500.06;4141702;28;19936;-60
2023/08/09 10:18:36;;;;;;;;;;;;;;;22.57;52.34;101500.22;4140997;28;19930;-59
2023/08/09 10:20:41;;;;;;;;;;;;;;;22.61;52.20;101498.19;4138998;28;20032;-58
2023/08/09 10:22:47;;;;;;;;;;;;;;;22.62;52.32;101503.41;4141423;28;19929;-59
2023/08/09 10:24:50;;;;;;;;;;;;;;;22.62;52.12;101499.88;4142990;28;19933;-60
2023/08/09 10:26:54;;;;;;;;;;;;;;;22.63;52.29;101501.59;4145183;28;20303;-59
2023/08/09 10:29:04;;;;;;;;;;;;;;;22.67;52.22;101504.91;4141797;28;19926;-60